Time;durP1;ratioP1;P1;durP2;ratioP2;P2;SDS_P1;SDS_P2;PMS_P1;PMS_P2;Temp;Humidity;BMP_temperature;BMP_pressure;BME280_temperature;BME280_humidity;BME280_pressure;Samples;Min_cycle;Max_cycle;Signal;HPM_P1;HPM_P2
2023/02/22 00:01:01;;;;;;;9.40;5.18;;;9.80;64.00;;;;;;5053412;28;20025;-76
2023/02/22 00:03:31;;;;;;;8.80;4.75;;;9.80;64.30;;;;;;5035078;28;20036;-77
2023/02/22 00:06:05;;;;;;;8.95;4.10;;;9.70;64.20;;;;;;5032788;28;20481;-77
2023/02/22 00:08:36;;;;;;;7.40;4.57;;;9.70;64.20;;;;;;5051916;28;20366;-77
2023/02/22 00:11:07;;;;;;;13.32;5.20;;;9.70;64.10;;;;;;5053110;28;20106;-76
2023/02/22 00:13:34;;;;;;;9.02;5.40;;;9.70;64.30;;;;;;5052847;28;20489;-76
2023/02/22 00:16:00;;;;;;;6.47;4.40;;;9.60;64.40;;;;;;5038839;28;20067;-76
2023/02/22 00:18:27;;;;;;;7.15;4.43;;;9.60;64.30;;;;;;5057189;28;20021;-76
2023/02/22 00:20:54;;;;;;;8.68;5.35;;;9.60;65.00;;;;;;5056828;28;20492;-76
2023/02/22 00:23:21;;;;;;;6.13;4.07;;;9.60;64.30;;;;;;5056452;28;20417;-76
2023/02/22 00:25:49;;;;;;;6.22;3.65;;;9.60;64.40;;;;;;5056803;28;20087;-76
2023/02/22 00:28:19;;;;;;;6.15;4.07;;;9.60;64.60;;;;;;5057079;28;20108;-76
2023/02/22 00:30:47;;;;;;;7.47;4.63;;;9.60;64.70;;;;;;5056802;28;20021;-76
2023/02/22 00:33:14;;;;;;;8.75;4.82;;;9.60;64.60;;;;;;5056136;28;20029;-76
2023/02/22 00:35:44;;;;;;;6.25;3.92;;;9.50;64.60;;;;;;5056649;28;20423;-76
2023/02/22 00:38:12;;;;;;;6.70;3.88;;;9.50;64.70;;;;;;5039558;28;20056;-76
2023/02/22 00:40:39;;;;;;;5.15;3.20;;;9.50;64.60;;;;;;5054851;28;20049;-76
2023/02/22 00:43:05;;;;;;;8.40;3.92;;;9.50;64.60;;;;;;5056823;28;20103;-77
2023/02/22 00:45:33;;;;;;;9.75;4.70;;;9.50;64.60;;;;;;5056993;28;20086;-76
2023/02/22 00:47:59;;;;;;;10.57;4.75;;;9.40;64.60;;;;;;5056692;28;20474;-76
2023/02/22 00:50:27;;;;;;;12.57;5.90;;;9.40;64.60;;;;;;5056748;28;20079;-76
2023/02/22 00:52:55;;;;;;;12.63;5.50;;;9.40;64.80;;;;;;5056730;28;20048;-76
2023/02/22 00:55:27;;;;;;;9.18;5.35;;;9.40;64.90;;;;;;5056116;28;20433;-77
2023/02/22 00:57:55;;;;;;;13.15;5.53;;;9.40;65.10;;;;;;5056750;28;20096;-76
2023/02/22 01:00:35;;;;;;;8.25;4.35;;;9.30;65.10;;;;;;5037898;28;20029;-76
2023/02/22 01:03:01;;;;;;;9.55;5.10;;;9.30;65.20;;;;;;5051282;28;20103;-76
2023/02/22 01:05:29;;;;;;;8.00;4.57;;;9.30;65.30;;;;;;5038735;28;20021;-76
2023/02/22 01:07:57;;;;;;;7.18;4.68;;;9.30;65.50;;;;;;5056169;28;20028;-76
2023/02/22 01:10:25;;;;;;;6.60;4.03;;;9.20;65.50;;;;;;5056347;28;20047;-76
2023/02/22 01:12:51;;;;;;;6.32;4.20;;;9.20;65.50;;;;;;5036345;28;20029;-76
2023/02/22 01:15:22;;;;;;;6.75;4.35;;;9.20;65.40;;;;;;5056300;28;20018;-77
2023/02/22 01:17:50;;;;;;;11.35;4.55;;;9.20;65.30;;;;;;5055993;28;20513;-76
2023/02/22 01:20:17;;;;;;;7.82;4.90;;;9.20;65.30;;;;;;5056269;28;20025;-77
2023/02/22 01:22:45;;;;;;;7.90;4.00;;;9.30;65.30;;;;;;5056108;28;20032;-76
2023/02/22 01:25:15;;;;;;;9.95;5.45;;;9.20;65.30;;;;;;5055078;28;20049;-77
2023/02/22 01:27:41;;;;;;;7.95;4.82;;;9.20;65.50;;;;;;5056394;28;20547;-76
2023/02/22 01:30:08;;;;;;;7.13;4.13;;;9.20;65.50;;;;;;5055604;28;20056;-76
2023/02/22 01:32:38;;;;;;;5.47;3.80;;;9.20;65.40;;;;;;5055369;28;20064;-76
2023/02/22 01:35:08;;;;;;;7.10;3.88;;;9.20;65.50;;;;;;5055975;28;20055;-76
2023/02/22 01:37:35;;;;;;;7.05;4.28;;;9.20;65.40;;;;;;5056098;28;20025;-76
2023/02/22 01:40:02;;;;;;;8.95;4.72;;;9.20;65.30;;;;;;5055451;28;20033;-76
2023/02/22 01:42:29;;;;;;;10.73;4.47;;;9.20;65.30;;;;;;5055741;28;20384;-76
2023/02/22 01:45:28;;;;;;;12.20;4.90;;;9.20;65.40;;;;;;5037595;28;20451;-76
2023/02/22 01:48:12;;;;;;;9.00;4.78;;;9.10;65.10;;;;;;5055786;28;20037;-76
2023/02/22 01:50:42;;;;;;;10.30;5.22;;;9.10;65.10;;;;;;5046909;28;20025;-76
2023/02/22 01:53:12;;;;;;;8.38;4.65;;;9.10;65.10;;;;;;5035961;28;20026;-76
2023/02/22 01:55:38;;;;;;;9.45;4.40;;;9.00;65.10;;;;;;5044482;28;20378;-76
2023/02/22 01:58:05;;;;;;;7.55;4.82;;;9.00;65.20;;;;;;5055749;28;20021;-76
2023/02/22 02:00:32;;;;;;;7.78;4.68;;;9.00;65.40;;;;;;5055255;28;20020;-76
2023/02/22 02:03:09;;;;;;;10.50;5.70;;;9.00;65.40;;;;;;5054705;28;20037;-76
2023/02/22 02:05:36;;;;;;;8.25;4.72;;;9.00;65.40;;;;;;5055397;28;20096;-76
2023/02/22 02:08:13;;;;;;;17.27;6.00;;;8.90;65.40;;;;;;5051480;28;20056;-76
2023/02/22 02:10:40;;;;;;;10.57;5.68;;;8.90;65.40;;;;;;5055507;28;20040;-76
2023/02/22 02:13:07;;;;;;;11.70;5.63;;;8.90;65.50;;;;;;5055053;28;20414;-76
2023/02/22 02:15:33;;;;;;;7.18;4.45;;;8.80;65.50;;;;;;5054442;28;20035;-76
2023/02/22 02:18:05;;;;;;;7.68;5.00;;;8.80;65.60;;;;;;5054868;28;20064;-76
2023/02/22 02:21:02;;;;;;;7.90;4.70;;;8.80;65.60;;;;;;5036535;28;20025;-76
2023/02/22 02:23:42;;;;;;;12.18;4.90;;;8.80;65.50;;;;;;5054468;28;20366;-76
2023/02/22 02:26:08;;;;;;;7.47;5.03;;;8.70;65.50;;;;;;5037193;28;20048;-76
2023/02/22 02:28:58;;;;;;;9.27;4.80;;;8.80;65.70;;;;;;5036704;28;20025;-76
2023/02/22 02:31:45;;;;;;;6.85;4.53;;;8.70;65.80;;;;;;5055483;28;20040;-77
2023/02/22 02:34:28;;;;;;;8.00;4.38;;;8.70;65.80;;;;;;5055114;28;20017;-76
2023/02/22 02:37:05;;;;;;;8.50;4.43;;;8.70;65.70;;;;;;5054425;28;20078;-76
2023/02/22 02:39:43;;;;;;;7.40;4.72;;;8.70;65.70;;;;;;5054705;28;20036;-76
2023/02/22 02:42:15;;;;;;;8.85;4.72;;;8.70;65.80;;;;;;5054883;28;20446;-76
2023/02/22 02:44:48;;;;;;;9.50;4.85;;;8.70;66.00;;;;;;5054130;28;20021;-76
2023/02/22 02:47:20;;;;;;;9.65;5.22;;;8.70;66.10;;;;;;5055031;28;20029;-76
2023/02/22 02:50:05;;;;;;;6.70;4.53;;;8.60;65.90;;;;;;5053805;28;20079;-76
2023/02/22 02:52:33;;;;;;;9.10;4.20;;;8.60;66.00;;;;;;5036386;28;20541;-76
2023/02/22 02:55:01;;;;;;;6.68;4.38;;;8.60;66.00;;;;;;5054080;28;20065;-76
2023/02/22 02:57:27;;;;;;;7.05;4.18;;;8.60;66.00;;;;;;5054103;28;20017;-76
2023/02/22 02:59:53;;;;;;;6.70;4.35;;;8.60;66.00;;;;;;5054225;28;20032;-76
2023/02/22 03:02:19;;;;;;;8.23;4.30;;;8.60;66.00;;;;;;5053816;28;20021;-76
2023/02/22 03:05:09;;;;;;;5.82;4.07;;;8.60;66.00;;;;;;5053820;28;20386;-75
2023/02/22 03:07:49;;;;;;;9.45;4.95;;;8.60;66.00;;;;;;5036290;28;20064;-76
2023/02/22 03:10:36;;;;;;;7.78;4.20;;;8.60;66.00;;;;;;5036117;28;20022;-76
2023/02/22 03:13:12;;;;;;;7.78;3.80;;;8.60;65.90;;;;;;5034349;28;20029;-76
2023/02/22 03:15:46;;;;;;;6.90;3.40;;;8.60;65.90;;;;;;5034027;28;20021;-75
2023/02/22 03:18:23;;;;;;;13.75;5.85;;;8.60;65.80;;;;;;5035515;28;20049;-76
2023/02/22 03:20:56;;;;;;;11.88;6.53;;;8.60;65.80;;;;;;5054091;28;20025;-76
2023/02/22 03:23:36;;;;;;;11.10;6.03;;;8.50;65.80;;;;;;5053374;28;20036;-76
2023/02/22 03:26:11;;;;;;;11.05;5.53;;;8.60;66.10;;;;;;5053200;28;20037;-76
2023/02/22 03:28:39;;;;;;;10.52;5.97;;;8.60;66.10;;;;;;5053429;28;20025;-76
2023/02/22 03:31:14;;;;;;;7.70;5.05;;;8.50;66.10;;;;;;5035922;28;20025;-76
2023/02/22 03:33:48;;;;;;;11.15;5.15;;;8.50;66.20;;;;;;5035484;28;20021;-76
2023/02/22 03:36:20;;;;;;;9.00;5.07;;;8.50;66.20;;;;;;5053903;28;20084;-76
2023/02/22 03:38:48;;;;;;;10.05;5.55;;;8.50;66.10;;;;;;5052976;28;20025;-76
2023/02/22 03:41:17;;;;;;;9.50;5.57;;;8.50;66.10;;;;;;5053592;28;20021;-76
2023/02/22 03:43:48;;;;;;;18.73;6.45;;;8.50;66.40;;;;;;5053296;28;20032;-76
2023/02/22 03:46:15;;;;;;;16.60;8.35;;;8.50;66.40;;;;;;5053497;28;20021;-76
2023/02/22 03:48:56;;;;;;;13.20;6.72;;;8.50;66.50;;;;;;5052823;28;20495;-76
2023/02/22 03:51:23;;;;;;;11.05;6.30;;;8.40;66.50;;;;;;5053230;28;20021;-76
2023/02/22 03:53:50;;;;;;;15.43;7.68;;;8.40;66.40;;;;;;5034890;28;20449;-76
2023/02/22 03:56:34;;;;;;;24.73;11.50;;;8.50;66.50;;;;;;5035516;28;20036;-76
2023/02/22 03:59:04;;;;;;;16.20;7.70;;;8.40;66.60;;;;;;5052561;28;20017;-76
2023/02/22 04:01:29;;;;;;;13.27;6.47;;;8.40;66.50;;;;;;5036367;28;20025;-76
2023/02/22 04:03:55;;;;;;;14.75;7.22;;;8.40;66.60;;;;;;5040234;28;20363;-76
2023/02/22 04:06:21;;;;;;;11.48;6.97;;;8.40;66.50;;;;;;5053208;28;20056;-76
2023/02/22 04:08:47;;;;;;;11.27;6.20;;;8.40;66.50;;;;;;5050309;28;20436;-76
2023/02/22 04:11:12;;;;;;;16.73;7.10;;;8.40;66.50;;;;;;5053579;28;20440;-76
2023/02/22 04:13:38;;;;;;;19.48;9.45;;;8.40;66.60;;;;;;5053104;28;20477;-76
2023/02/22 04:16:04;;;;;;;14.10;7.53;;;8.40;66.60;;;;;;5053261;28;20036;-76
2023/02/22 04:18:30;;;;;;;12.80;6.03;;;8.40;66.60;;;;;;5053443;28;20025;-76
2023/02/22 04:20:56;;;;;;;11.38;6.70;;;8.40;66.60;;;;;;5035643;28;20032;-76
2023/02/22 04:23:21;;;;;;;13.35;6.32;;;8.30;66.50;;;;;;5052742;28;20055;-76
2023/02/22 04:25:47;;;;;;;15.90;7.70;;;8.30;66.50;;;;;;5053120;28;20029;-76
2023/02/22 04:28:13;;;;;;;23.42;10.25;;;8.30;66.40;;;;;;5052988;28;20068;-77
2023/02/22 04:30:39;;;;;;;29.58;14.52;;;8.30;66.50;;;;;;5052288;28;20378;-76
2023/02/22 04:33:04;;;;;;;40.20;17.75;;;8.40;66.50;;;;;;5052417;28;20094;-76
2023/02/22 04:35:30;;;;;;;35.92;17.23;;;8.40;66.40;;;;;;5052302;28;20025;-76
2023/02/22 04:37:57;;;;;;;32.92;13.40;;;8.40;66.40;;;;;;5052858;28;20028;-76
2023/02/22 04:40:22;;;;;;;29.77;14.13;;;8.30;66.30;;;;;;5052584;28;20057;-76
2023/02/22 04:42:48;;;;;;;34.78;16.25;;;8.40;66.40;;;;;;5052781;28;20061;-76
2023/02/22 04:45:14;;;;;;;37.45;15.82;;;8.30;66.50;;;;;;5052751;28;20478;-76
2023/02/22 04:47:40;;;;;;;23.20;11.82;;;8.30;66.70;;;;;;5052067;28;20029;-76
2023/02/22 04:50:07;;;;;;;20.25;11.40;;;8.30;66.90;;;;;;5030320;28;20111;-76
2023/02/22 04:52:33;;;;;;;27.70;12.75;;;8.30;66.90;;;;;;5052659;28;20013;-77
2023/02/22 04:54:59;;;;;;;20.50;11.10;;;8.30;66.90;;;;;;5052301;28;20023;-76
2023/02/22 04:57:25;;;;;;;26.45;10.82;;;8.30;66.80;;;;;;5052943;28;20109;-76
2023/02/22 04:59:52;;;;;;;15.50;8.90;;;8.30;66.90;;;;;;5053273;28;20025;-76
2023/02/22 05:02:18;;;;;;;16.98;9.65;;;8.30;66.80;;;;;;5055652;28;20548;-76
2023/02/22 05:04:44;;;;;;;24.85;10.02;;;8.30;66.90;;;;;;5055953;28;20074;-76
2023/02/22 05:07:10;;;;;;;19.77;10.30;;;8.30;66.80;;;;;;5053650;28;20029;-76
2023/02/22 05:09:35;;;;;;;23.10;10.15;;;8.30;67.50;;;;;;5037382;28;20033;-76
2023/02/22 05:12:01;;;;;;;25.95;12.88;;;8.30;66.70;;;;;;5056029;28;20017;-76
2023/02/22 05:14:27;;;;;;;28.30;14.38;;;8.30;66.70;;;;;;5055702;28;20083;-76
2023/02/22 05:16:55;;;;;;;30.15;13.68;;;8.20;66.60;;;;;;5055720;28;20438;-76
2023/02/22 05:19:21;;;;;;;33.03;17.40;;;8.30;66.70;;;;;;5055807;28;20100;-76
2023/02/22 05:21:47;;;;;;;27.23;14.73;;;8.20;66.70;;;;;;5055856;28;20490;-76
2023/02/22 05:24:13;;;;;;;21.30;12.75;;;8.20;66.60;;;;;;5055381;28;20091;-76
2023/02/22 05:26:39;;;;;;;21.13;12.13;;;8.20;66.60;;;;;;5055575;28;20580;-76
2023/02/22 05:29:05;;;;;;;17.35;11.00;;;8.20;67.40;;;;;;5055350;28;20494;-76
2023/02/22 05:31:31;;;;;;;14.45;8.05;;;8.20;66.60;;;;;;5037752;28;20391;-76
2023/02/22 05:33:57;;;;;;;11.52;7.10;;;8.20;66.70;;;;;;5054750;28;20021;-76
2023/02/22 05:36:23;;;;;;;13.65;7.45;;;8.20;66.60;;;;;;5055575;28;20024;-76
2023/02/22 05:38:49;;;;;;;15.65;8.32;;;8.20;66.60;;;;;;5053185;28;20021;-76
2023/02/22 05:41:15;;;;;;;26.55;10.38;;;8.20;66.50;;;;;;5053731;28;20136;-76
2023/02/22 05:43:41;;;;;;;15.38;8.35;;;8.20;66.50;;;;;;5055100;28;20028;-76
2023/02/22 05:46:07;;;;;;;20.38;8.68;;;8.20;66.70;;;;;;5055398;28;20028;-76
2023/02/22 05:48:33;;;;;;;16.25;8.95;;;8.10;66.70;;;;;;5054909;28;20025;-75
2023/02/22 05:50:59;;;;;;;12.45;7.00;;;8.10;66.70;;;;;;5056818;28;20386;-75
2023/02/22 05:53:25;;;;;;;14.68;8.13;;;8.10;66.70;;;;;;5037185;28;20029;-76
2023/02/22 05:55:51;;;;;;;14.20;7.43;;;8.20;66.80;;;;;;5055920;28;20377;-76
2023/02/22 05:58:17;;;;;;;13.68;7.82;;;8.10;66.60;;;;;;5055564;28;20057;-76
2023/02/22 06:00:43;;;;;;;21.45;7.60;;;8.10;66.60;;;;;;5055234;28;20033;-76
2023/02/22 06:03:10;;;;;;;14.02;7.25;;;8.10;66.50;;;;;;5055023;28;20033;-76
2023/02/22 06:05:36;;;;;;;19.42;7.55;;;8.10;66.50;;;;;;5055037;28;20048;-75
2023/02/22 06:08:04;;;;;;;14.25;7.53;;;8.10;66.50;;;;;;5055127;28;20143;-76
2023/02/22 06:10:30;;;;;;;18.30;7.95;;;8.10;66.60;;;;;;5054665;28;20108;-76
2023/02/22 06:12:56;;;;;;;18.83;8.25;;;8.10;66.70;;;;;;5055427;28;20029;-75
2023/02/22 06:15:23;;;;;;;15.10;7.47;;;8.10;66.70;;;;;;5054848;28;20163;-76
2023/02/22 06:17:50;;;;;;;25.58;9.52;;;8.10;66.70;;;;;;5054762;28;20017;-75
2023/02/22 06:20:21;;;;;;;16.88;8.63;;;8.10;66.80;;;;;;5054486;28;20031;-75
2023/02/22 06:22:48;;;;;;;14.10;7.78;;;8.10;66.80;;;;;;5055080;28;20512;-76
2023/02/22 06:25:17;;;;;;;19.10;8.68;;;8.10;66.80;;;;;;5054446;28;20124;-75
2023/02/22 06:27:42;;;;;;;15.48;7.97;;;8.20;66.90;;;;;;5055117;28;20104;-75
2023/02/22 06:30:12;;;;;;;13.90;7.63;;;8.20;66.90;;;;;;5053921;28;20120;-76
2023/02/22 06:32:38;;;;;;;15.77;7.25;;;8.20;66.90;;;;;;5054298;28;20024;-75
2023/02/22 06:35:04;;;;;;;13.13;7.45;;;8.20;66.90;;;;;;5053839;28;20032;-75
2023/02/22 06:37:30;;;;;;;15.60;7.07;;;8.20;66.80;;;;;;5054507;28;20466;-76
2023/02/22 06:39:56;;;;;;;13.45;7.43;;;8.30;66.90;;;;;;5054101;28;20097;-75
2023/02/22 06:42:22;;;;;;;10.57;6.68;;;8.30;66.80;;;;;;5054246;28;20108;-75
2023/02/22 06:44:48;;;;;;;12.35;6.97;;;8.30;66.80;;;;;;5053963;28;20059;-76
2023/02/22 06:47:14;;;;;;;10.88;6.45;;;8.30;66.80;;;;;;5054529;28;20053;-75
2023/02/22 06:49:40;;;;;;;24.80;8.07;;;8.40;66.80;;;;;;5053973;28;20035;-76
2023/02/22 06:52:08;;;;;;;28.00;8.00;;;8.40;66.80;;;;;;5053600;28;20027;-76
2023/02/22 06:54:33;;;;;;;16.63;8.18;;;8.40;66.80;;;;;;5053809;28;20036;-76
2023/02/22 06:56:59;;;;;;;13.65;6.63;;;8.40;66.80;;;;;;5054588;28;20032;-75
2023/02/22 06:59:26;;;;;;;11.20;7.25;;;8.50;66.80;;;;;;5053642;28;20079;-76
2023/02/22 07:01:52;;;;;;;13.43;7.07;;;8.50;66.90;;;;;;5054416;28;20024;-76
2023/02/22 07:04:19;;;;;;;10.48;6.30;;;8.50;66.90;;;;;;5053891;28;20100;-76
2023/02/22 07:06:48;;;;;;;16.05;8.00;;;8.60;67.00;;;;;;5054183;28;20029;-76
2023/02/22 07:09:16;;;;;;;17.80;8.38;;;8.60;67.10;;;;;;5048718;28;20024;-76
2023/02/22 07:11:42;;;;;;;12.25;7.68;;;8.60;67.00;;;;;;5054101;28;20031;-77
2023/02/22 07:14:08;;;;;;;14.70;8.10;;;8.70;67.10;;;;;;5053249;28;20025;-76
2023/02/22 07:16:34;;;;;;;11.65;7.47;;;8.70;67.10;;;;;;5053941;28;20103;-76
2023/02/22 07:19:00;;;;;;;15.30;8.45;;;8.80;67.10;;;;;;5054268;28;20052;-76
2023/02/22 07:21:28;;;;;;;15.88;7.70;;;8.80;67.00;;;;;;5053962;28;20123;-77
2023/02/22 07:23:55;;;;;;;12.85;6.85;;;8.90;67.00;;;;;;5052995;28;20402;-76
2023/02/22 07:26:22;;;;;;;13.77;7.63;;;8.90;66.90;;;;;;5050828;28;20048;-76
2023/02/22 07:28:48;;;;;;;21.05;7.88;;;9.00;66.90;;;;;;5051729;28;20025;-76
2023/02/22 07:31:15;;;;;;;12.02;8.40;;;9.00;66.80;;;;;;5053069;28;20370;-76
2023/02/22 07:33:41;;;;;;;16.20;7.88;;;9.00;66.80;;;;;;5053779;28;20091;-76
2023/02/22 07:36:07;;;;;;;10.95;7.63;;;9.10;66.80;;;;;;5053417;28;20470;-76
2023/02/22 07:38:33;;;;;;;13.70;6.82;;;9.10;66.70;;;;;;5035397;28;20041;-76
2023/02/22 07:40:59;;;;;;;13.00;6.80;;;9.20;66.60;;;;;;5053055;28;20029;-76
2023/02/22 07:43:26;;;;;;;11.77;7.05;;;9.20;66.50;;;;;;5035315;28;20021;-76
2023/02/22 07:45:55;;;;;;;11.52;6.65;;;9.20;66.30;;;;;;5035428;28;20119;-76
2023/02/22 07:48:24;;;;;;;15.73;7.43;;;9.30;66.30;;;;;;5052760;28;20078;-76
2023/02/22 07:50:50;;;;;;;12.23;7.57;;;9.30;66.20;;;;;;5053428;28;20021;-75
2023/02/22 07:53:18;;;;;;;13.75;7.18;;;9.30;66.30;;;;;;5053169;28;20385;-75
2023/02/22 07:55:44;;;;;;;12.13;7.15;;;9.40;66.30;;;;;;5053586;28;20053;-76
2023/02/22 07:58:16;;;;;;;13.35;6.80;;;9.40;66.30;;;;;;5052410;28;20110;-76
2023/02/22 08:00:47;;;;;;;11.40;7.38;;;9.50;66.30;;;;;;5035536;28;20182;-76
2023/02/22 08:03:14;;;;;;;14.50;6.53;;;9.50;66.30;;;;;;5052735;28;20036;-76
2023/02/22 08:05:45;;;;;;;11.45;7.20;;;9.50;66.30;;;;;;5053009;28;20025;-75
2023/02/22 08:08:13;;;;;;;11.40;6.32;;;9.60;66.40;;;;;;5053230;28;20497;-75
2023/02/22 08:10:39;;;;;;;11.30;6.30;;;9.70;66.40;;;;;;5053247;28;20032;-76
2023/02/22 08:13:05;;;;;;;10.38;7.13;;;9.80;66.40;;;;;;5052852;28;20051;-76
2023/02/22 08:15:37;;;;;;;9.70;5.90;;;9.90;66.40;;;;;;5052786;28;20025;-75
2023/02/22 08:18:07;;;;;;;7.72;5.53;;;9.90;66.40;;;;;;5052767;28;20390;-76
2023/02/22 08:20:34;;;;;;;10.02;6.38;;;10.00;66.40;;;;;;5052448;28;20032;-76
2023/02/22 08:23:00;;;;;;;9.90;6.35;;;10.10;66.50;;;;;;5052895;28;20100;-76
2023/02/22 08:25:28;;;;;;;8.80;5.90;;;10.20;66.40;;;;;;5031120;28;20455;-76
2023/02/22 08:28:05;;;;;;;11.80;7.15;;;10.30;66.40;;;;;;5032567;28;20057;-76
2023/02/22 08:30:35;;;;;;;13.20;7.35;;;10.40;66.30;;;;;;5032518;28;20026;-76
2023/02/22 08:33:02;;;;;;;12.43;7.50;;;10.50;66.30;;;;;;5032816;28;20486;-76
2023/02/22 08:35:30;;;;;;;12.73;7.75;;;10.60;66.20;;;;;;5033740;28;20061;-77
2023/02/22 08:37:59;;;;;;;17.02;7.88;;;10.60;66.00;;;;;;5036041;28;20443;-77
2023/02/22 08:40:26;;;;;;;17.23;8.25;;;10.70;65.80;;;;;;5035517;28;20385;-76
2023/02/22 08:42:53;;;;;;;14.13;7.75;;;10.80;65.70;;;;;;5036582;28;20487;-76
2023/02/22 08:45:18;;;;;;;26.48;9.38;;;10.90;65.60;;;;;;5035761;28;20112;-76
2023/02/22 08:47:45;;;;;;;18.10;8.63;;;11.00;65.60;;;;;;5036377;28;20113;-75
2023/02/22 08:50:23;;;;;;;21.13;11.73;;;11.10;65.60;;;;;;5035981;28;20025;-77
2023/02/22 08:52:51;;;;;;;26.10;14.93;;;11.20;65.50;;;;;;5035916;28;20029;-76
2023/02/22 08:55:20;;;;;;;21.20;11.70;;;11.30;65.50;;;;;;5036521;28;20030;-76
2023/02/22 08:57:46;;;;;;;16.55;10.82;;;11.40;65.50;;;;;;5034652;28;20025;-77
2023/02/22 09:00:12;;;;;;;20.17;11.07;;;11.50;65.40;;;;;;5036101;28;20418;-77
2023/02/22 09:02:38;;;;;;;19.35;11.52;;;11.60;65.30;;;;;;5035176;28;20021;-77
2023/02/22 09:05:04;;;;;;;29.60;15.05;;;11.70;65.20;;;;;;5035809;28;20398;-76
2023/02/22 09:07:30;;;;;;;31.02;16.98;;;11.70;65.00;;;;;;5036400;28;20032;-77
2023/02/22 09:09:56;;;;;;;33.63;15.48;;;11.90;64.80;;;;;;5034192;28;20025;-77
2023/02/22 09:12:22;;;;;;;25.73;13.77;;;11.90;64.60;;;;;;5036456;28;20021;-77
2023/02/22 09:14:47;;;;;;;33.60;12.57;;;12.00;64.50;;;;;;5034633;28;20030;-77
2023/02/22 09:17:13;;;;;;;19.52;11.25;;;12.10;64.40;;;;;;5038559;28;20026;-76
2023/02/22 09:19:39;;;;;;;22.95;9.23;;;12.20;64.30;;;;;;5035535;28;20025;-77
2023/02/22 09:22:05;;;;;;;21.08;10.30;;;12.30;64.20;;;;;;5036893;28;20018;-77
2023/02/22 09:24:30;;;;;;;25.05;10.30;;;12.40;64.00;;;;;;5046716;28;20371;-77
2023/02/22 09:26:58;;;;;;;19.65;9.55;;;12.40;63.80;;;;;;5056162;28;20044;-77
2023/02/22 09:29:26;;;;;;;15.75;8.48;;;12.50;63.70;;;;;;5037287;28;20482;-77
2023/02/22 09:31:54;;;;;;;20.38;8.63;;;12.60;63.70;;;;;;5038216;28;20028;-76
2023/02/22 09:34:27;;;;;;;22.20;8.77;;;12.70;63.50;;;;;;5056020;28;20021;-77
2023/02/22 09:36:53;;;;;;;15.18;9.35;;;12.80;63.40;;;;;;5056399;28;20021;-76
2023/02/22 09:39:20;;;;;;;14.25;8.25;;;12.80;63.20;;;;;;5055076;28;20021;-76
2023/02/22 09:42:04;;;;;;;15.25;8.00;;;12.90;62.90;;;;;;5055872;28;20178;-77
2023/02/22 09:44:35;;;;;;;14.60;8.32;;;12.90;62.40;;;;;;5055791;28;20382;-77
2023/02/22 09:47:02;;;;;;;16.08;8.13;;;13.00;62.30;;;;;;5037241;28;20101;-77
2023/02/22 09:49:36;;;;;;;15.90;8.40;;;13.10;62.30;;;;;;5055562;28;20056;-77
2023/02/22 09:52:29;;;;;;;18.80;9.15;;;13.10;62.00;;;;;;5055473;28;20104;-77
2023/02/22 09:55:08;;;;;;;15.27;9.00;;;13.20;62.00;;;;;;5046760;28;20035;-77
2023/02/22 09:57:41;;;;;;;13.52;8.27;;;13.20;61.80;;;;;;5055370;28;20029;-77
2023/02/22 10:00:18;;;;;;;18.50;9.35;;;13.30;61.80;;;;;;5061738;28;20079;-77
2023/02/22 10:03:12;;;;;;;23.02;10.57;;;13.30;61.70;;;;;;5054791;28;20493;-77
2023/02/22 10:05:45;;;;;;;27.33;13.05;;;13.40;61.80;;;;;;5055097;28;20381;-77
2023/02/22 10:08:14;;;;;;;22.85;11.63;;;13.50;61.50;;;;;;5044452;28;20083;-77
2023/02/22 10:10:45;;;;;;;23.27;10.82;;;13.60;61.70;;;;;;5040880;28;20021;-77
2023/02/22 10:13:17;;;;;;;26.10;12.00;;;13.60;61.80;;;;;;5054353;28;20025;-77
2023/02/22 10:15:52;;;;;;;25.90;14.00;;;13.70;61.70;;;;;;5054336;28;20462;-77
2023/02/22 10:18:33;;;;;;;21.10;13.65;;;13.80;61.10;;;;;;5032255;28;20112;-76
2023/02/22 10:21:29;;;;;;;26.27;14.02;;;13.90;60.70;;;;;;5054340;28;20035;-77
2023/02/22 10:24:04;;;;;;;23.23;11.73;;;14.00;60.30;;;;;;5036463;28;20099;-77
2023/02/22 10:26:36;;;;;;;21.63;11.93;;;14.10;59.90;;;;;;5051884;28;20025;-77
2023/02/22 10:29:27;;;;;;;24.45;11.35;;;14.20;60.20;;;;;;5053772;28;20029;-77
2023/02/22 10:32:30;;;;;;;16.63;9.52;;;14.30;60.00;;;;;;5054384;28;20399;-77
2023/02/22 10:34:58;;;;;;;21.35;10.63;;;14.40;59.70;;;;;;5053358;28;20042;-77
2023/02/22 10:37:30;;;;;;;15.30;8.15;;;14.40;59.00;;;;;;5054459;28;20024;-77
2023/02/22 10:40:12;;;;;;;13.95;6.88;;;14.60;59.10;;;;;;5034545;28;20025;-77
2023/02/22 10:42:38;;;;;;;14.30;8.13;;;14.60;58.80;;;;;;5054232;28;20099;-76
2023/02/22 10:45:17;;;;;;;12.80;7.32;;;14.80;58.80;;;;;;5036216;28;20072;-77
2023/02/22 10:47:44;;;;;;;10.52;6.38;;;14.90;58.80;;;;;;5053924;28;20513;-77
2023/02/22 10:50:13;;;;;;;12.98;7.10;;;14.90;58.40;;;;;;5035104;28;20371;-77
2023/02/22 10:52:39;;;;;;;11.48;6.60;;;15.00;58.10;;;;;;5054235;28;20381;-78
2023/02/22 10:55:11;;;;;;;10.52;6.47;;;15.10;57.90;;;;;;5053076;28;20029;-77
2023/02/22 10:57:37;;;;;;;10.02;5.85;;;15.20;57.50;;;;;;5035209;28;20373;-77
2023/02/22 11:00:25;;;;;;;11.90;5.40;;;15.20;57.00;;;;;;5034999;28;20037;-77
2023/02/22 11:03:21;;;;;;;17.90;5.35;;;15.30;56.80;;;;;;5067438;28;20500;-77
2023/02/22 11:05:48;;;;;;;16.25;5.25;;;15.40;56.40;;;;;;5036553;28;20029;-77
2023/02/22 11:08:20;;;;;;;7.47;4.55;;;15.50;56.00;;;;;;5052932;28;20151;-77
2023/02/22 11:10:59;;;;;;;8.32;4.43;;;15.60;55.40;;;;;;5048888;28;20048;-77
2023/02/22 11:13:30;;;;;;;6.75;4.18;;;15.70;54.90;;;;;;5035380;28;20363;-77
2023/02/22 11:16:20;;;;;;;7.57;4.07;;;15.80;55.60;;;;;;5052524;28;20029;-77
2023/02/22 11:18:47;;;;;;;7.88;3.17;;;15.80;55.10;;;;;;5042976;28;20087;-77
2023/02/22 11:21:21;;;;;;;5.28;2.78;;;15.90;54.80;;;;;;5033894;28;20032;-77
2023/02/22 11:23:47;;;;;;;3.88;2.40;;;16.00;55.20;;;;;;5038631;28;20033;-77
2023/02/22 11:26:16;;;;;;;8.80;4.57;;;16.00;55.10;;;;;;5050338;28;20029;-76
2023/02/22 11:28:54;;;;;;;6.35;3.15;;;16.10;54.40;;;;;;5050824;28;20021;-75
2023/02/22 11:31:26;;;;;;;5.57;2.50;;;16.10;54.10;;;;;;5052537;28;20052;-76
2023/02/22 11:33:56;;;;;;;4.78;2.83;;;16.20;54.40;;;;;;5052008;28;20078;-77
2023/02/22 11:36:39;;;;;;;3.80;1.77;;;16.30;54.90;;;;;;5035363;28;20569;-77
2023/02/22 11:39:26;;;;;;;3.83;2.65;;;16.40;54.90;;;;;;5032504;28;20104;-77
2023/02/22 11:41:54;;;;;;;4.55;2.90;;;16.50;54.30;;;;;;5048556;28;20501;-76
2023/02/22 11:44:25;;;;;;;6.85;2.22;;;16.50;53.80;;;;;;5037563;28;20037;-79
2023/02/22 11:46:54;;;;;;;3.97;2.80;;;16.60;54.10;;;;;;5051868;28;20117;-77
2023/02/22 11:49:32;;;;;;;9.65;2.63;;;16.60;53.30;;;;;;5052541;28;20496;-79
2023/02/22 11:52:12;;;;;;;5.75;2.72;;;16.70;53.30;;;;;;5052956;28;20052;-80
2023/02/22 11:54:53;;;;;;;4.30;2.45;;;16.70;53.50;;;;;;5049237;28;20021;-78
2023/02/22 11:57:41;;;;;;;4.57;2.22;;;16.80;53.30;;;;;;5049374;28;20051;-76
2023/02/22 12:00:52;;;;;;;3.88;2.20;;;16.90;53.30;;;;;;5034637;28;20044;-78
2023/02/22 12:03:27;;;;;;;4.97;3.17;;;17.00;53.90;;;;;;4978204;28;20114;-76
2023/02/22 12:06:02;;;;;;;4.95;2.45;;;17.00;52.90;;;;;;4970579;28;20039;-77
2023/02/22 12:08:58;;;;;;;3.88;2.70;;;17.10;52.90;;;;;;4964324;28;20039;-79
2023/02/22 12:11:43;;;;;;;4.55;3.08;;;17.10;53.30;;;;;;4983264;28;20034;-78
2023/02/22 12:14:13;;;;;;;6.95;4.10;;;17.20;52.90;;;;;;4958830;28;20039;-76
2023/02/22 12:16:53;;;;;;;5.78;3.38;;;17.30;53.10;;;;;;4978944;28;20031;-76
2023/02/22 12:19:45;;;;;;;5.30;2.90;;;17.30;52.90;;;;;;4976802;28;20031;-75
2023/02/22 12:22:33;;;;;;;6.07;3.17;;;17.40;52.80;;;;;;4977922;28;20030;-75
2023/02/22 12:25:15;;;;;;;4.65;3.30;;;17.40;52.70;;;;;;4973943;28;20054;-75
2023/02/22 12:28:33;;;;;;;8.07;3.85;;;17.40;52.10;;;;;;4986656;28;20054;-77
2023/02/22 12:30:59;;;;;;;13.43;3.17;;;17.40;52.60;;;;;;4974864;28;20046;-76
2023/02/22 12:33:29;;;;;;;9.05;3.45;;;17.50;52.50;;;;;;4991106;28;20450;-77
2023/02/22 12:35:58;;;;;;;4.63;2.90;;;17.50;51.80;;;;;;4987152;28;20666;-77
2023/02/22 12:38:30;;;;;;;6.72;2.92;;;17.50;51.70;;;;;;4978470;28;20487;-77
2023/02/22 12:41:12;;;;;;;8.88;2.90;;;17.50;51.60;;;;;;5046644;28;20087;-77
2023/02/22 12:43:58;;;;;;;3.47;2.53;;;17.60;51.80;;;;;;5048504;28;20051;-77
2023/02/22 12:46:32;;;;;;;5.70;2.70;;;17.60;51.70;;;;;;5057518;28;20036;-76
2023/02/22 12:49:16;;;;;;;5.25;2.95;;;17.70;51.70;;;;;;5056191;28;20032;-77
2023/02/22 12:52:02;;;;;;;4.28;2.30;;;17.70;51.50;;;;;;5056723;28;20492;-74
2023/02/22 12:54:48;;;;;;;5.47;3.08;;;17.80;51.90;;;;;;5052269;28;20039;-75
2023/02/22 12:57:22;;;;;;;4.50;2.60;;;17.80;51.90;;;;;;5038850;28;20055;-75
2023/02/22 13:00:22;;;;;;;4.68;2.88;;;17.90;51.60;;;;;;5047520;28;20029;-75
2023/02/22 13:03:05;;;;;;;5.95;3.75;;;17.90;51.50;;;;;;5052809;28;20390;-76
2023/02/22 13:05:36;;;;;;;5.03;2.40;;;17.90;51.00;;;;;;5054060;28;20013;-77